createdAt,value
2023-10-09T00:00:41.054Z,100637.19
2023-10-09T00:03:08.405Z,100626.72
2023-10-09T00:05:47.216Z,100627.53
2023-10-09T00:08:23.349Z,100616.91
2023-10-09T00:10:54.506Z,100626.72
2023-10-09T00:13:29.313Z,100614.38
2023-10-09T00:16:01.046Z,100616.22
2023-10-09T00:18:31.157Z,100618.91
2023-10-09T00:21:01.921Z,100610.88
2023-10-09T00:23:29.393Z,100613.50
2023-10-09T00:26:10.962Z,100605.47
2023-10-09T00:28:39.128Z,100601.09
2023-10-09T00:31:07.669Z,100594.94
2023-10-09T00:33:34.817Z,100588.50
2023-10-09T00:36:11.500Z,100583.16
2023-10-09T00:38:45.554Z,100585.81
2023-10-09T00:41:13.764Z,100570.78
2023-10-09T00:43:44.134Z,100588.44
2023-10-09T00:46:24.962Z,100584.09
2023-10-09T00:49:02.113Z,100583.91
2023-10-09T00:51:35.813Z,100575.78
2023-10-09T00:54:15.202Z,100584.91
2023-10-09T00:56:44.947Z,100584.00
2023-10-09T00:59:16.909Z,100580.41
2023-10-09T01:01:57.034Z,100580.41
2023-10-09T01:04:30.797Z,100567.00
2023-10-09T01:07:15.856Z,100568.53
2023-10-09T01:09:46.331Z,100566.59
2023-10-09T01:12:18.745Z,100564.75
2023-10-09T01:14:45.842Z,100551.19
2023-10-09T01:17:13.022Z,100545.81
2023-10-09T01:19:39.486Z,100545.72
2023-10-09T01:22:13.459Z,100545.72
2023-10-09T01:24:40.972Z,100543.03
2023-10-09T01:27:16.229Z,100543.81
2023-10-09T01:29:44.869Z,100540.28
2023-10-09T01:32:17.990Z,100533.25
2023-10-09T01:34:51.929Z,100536.00
2023-10-09T01:37:23.581Z,100538.56
2023-10-09T01:39:59.017Z,100530.53
2023-10-09T01:42:31.865Z,100528.53
2023-10-09T01:45:17.047Z,100516.09
2023-10-09T01:47:52.769Z,100528.25
2023-10-09T01:50:21.487Z,100516.69
2023-10-09T01:52:50.123Z,100507.88
2023-10-09T01:55:49.532Z,100519.38
2023-10-09T01:58:24.629Z,100516.75
2023-10-09T02:00:58.208Z,100513.16
2023-10-09T02:03:25.662Z,100516.69
2023-10-09T02:05:54.640Z,100514.94
2023-10-09T02:08:36.643Z,100511.34
2023-10-09T02:11:03.820Z,100519.25
2023-10-09T02:13:31.130Z,100521.19
2023-10-09T02:16:15.184Z,100518.44
2023-10-09T02:18:53.859Z,100523.06
2023-10-09T02:21:30.356Z,100532.00
2023-10-09T02:23:58.344Z,100519.69
2023-10-09T02:26:29.558Z,100527.66
2023-10-09T02:29:00.831Z,100532.16
2023-10-09T02:31:36.684Z,100525.03
2023-10-09T02:34:06.082Z,100519.75
2023-10-09T02:36:32.507Z,100515.41
2023-10-09T02:38:59.279Z,100523.44
2023-10-09T02:41:29.193Z,100518.97
2023-10-09T02:44:05.810Z,100516.41
2023-10-09T02:46:32.325Z,100526.00
2023-10-09T02:48:58.755Z,100514.41
2023-10-09T02:51:29.513Z,100515.22
2023-10-09T02:53:58.542Z,100510.66
2023-10-09T02:56:28.144Z,100511.63
2023-10-09T02:58:57.000Z,100511.47
2023-10-09T03:01:23.379Z,100491.88
2023-10-09T03:03:50.186Z,100495.31
2023-10-09T03:06:26.046Z,100492.63
2023-10-09T03:08:52.448Z,100497.13
2023-10-09T03:11:19.999Z,100488.13
2023-10-09T03:13:46.348Z,100497.81
2023-10-09T03:16:17.012Z,100483.50
2023-10-09T03:18:43.412Z,100494.94
2023-10-09T03:21:10.811Z,100489.47
2023-10-09T03:23:37.207Z,100494.72
2023-10-09T03:26:19.023Z,100494.66
2023-10-09T03:28:48.806Z,100483.94
2023-10-09T03:31:15.219Z,100491.91
2023-10-09T03:33:41.956Z,100489.25
2023-10-09T03:36:11.799Z,100482.94
2023-10-09T03:38:39.546Z,100481.16
2023-10-09T03:41:07.176Z,100478.34
2023-10-09T03:43:38.713Z,100488.91
2023-10-09T03:46:06.742Z,100490.63
2023-10-09T03:48:33.615Z,100484.44
2023-10-09T03:51:10.161Z,100480.94
2023-10-09T03:53:37.676Z,100477.31
2023-10-09T03:56:10.192Z,100480.88
2023-10-09T03:58:36.516Z,100469.22
2023-10-09T04:01:08.770Z,100459.50
2023-10-09T04:03:37.958Z,100466.41
2023-10-09T04:06:05.732Z,100472.56
2023-10-09T04:08:34.439Z,100468.75
2023-10-09T04:11:05.282Z,100470.28
2023-10-09T04:13:35.515Z,100470.00
2023-10-09T04:16:12.397Z,100471.03
2023-10-09T04:18:39.840Z,100469.84
2023-10-09T04:21:19.817Z,100475.94
2023-10-09T04:24:05.698Z,100473.47
2023-10-09T04:26:35.849Z,100480.50
2023-10-09T04:29:03.305Z,100484.84
2023-10-09T04:31:35.694Z,100488.31
2023-10-09T04:34:23.163Z,100488.47
2023-10-09T04:36:57.878Z,100478.75
2023-10-09T04:39:30.254Z,100485.91
2023-10-09T04:42:16.270Z,100486.78
2023-10-09T04:45:01.056Z,100484.91
2023-10-09T04:47:36.993Z,100484.03
2023-10-09T04:50:10.516Z,100478.97
2023-10-09T04:52:37.389Z,100480.50
2023-10-09T04:55:12.776Z,100488.47
2023-10-09T04:57:42.950Z,100487.56
2023-10-09T05:00:26.051Z,100477.75
2023-10-09T05:02:57.628Z,100477.09
2023-10-09T05:05:44.426Z,100487.44
2023-10-09T05:08:30.908Z,100491.84
2023-10-09T05:11:04.524Z,100486.50
2023-10-09T05:13:43.228Z,100477.59
2023-10-09T05:16:17.230Z,100481.13
2023-10-09T05:18:46.218Z,100485.50
2023-10-09T05:21:31.402Z,100479.19
2023-10-09T05:24:14.003Z,100484.50
2023-10-09T05:26:48.864Z,100487.81
2023-10-09T05:29:34.749Z,100484.13
2023-10-09T05:32:16.325Z,100466.56
2023-10-09T05:35:00.542Z,100485.00
2023-10-09T05:37:35.478Z,100478.63
2023-10-09T05:40:04.768Z,100489.19
2023-10-09T05:42:39.185Z,100477.56
2023-10-09T05:45:19.956Z,100476.59
2023-10-09T05:47:54.347Z,100482.63
2023-10-09T05:50:28.144Z,100477.09
2023-10-09T05:53:30.717Z,100486.78
2023-10-09T05:56:17.324Z,100484.91
2023-10-09T05:59:03.633Z,100483.13
2023-10-09T06:01:48.678Z,100477.03
2023-10-09T06:04:18.849Z,100475.22
2023-10-09T06:06:46.718Z,100473.13
2023-10-09T06:09:15.052Z,100468.72
2023-10-09T06:11:50.698Z,100475.66
2023-10-09T06:14:30.569Z,100477.25
2023-10-09T06:16:58.183Z,100483.47
2023-10-09T06:19:33.062Z,100488.91
2023-10-09T06:22:19.040Z,100495.91
2023-10-09T06:24:54.709Z,100499.63
2023-10-09T06:27:27.331Z,100492.53
2023-10-09T06:30:13.775Z,100497.66
2023-10-09T06:33:05.680Z,100493.34
2023-10-09T06:35:36.994Z,100503.09
2023-10-09T06:38:03.953Z,100512.09
2023-10-09T06:40:37.722Z,100508.22
2023-10-09T06:43:10.910Z,100493.75
2023-10-09T06:45:46.586Z,100500.84
2023-10-09T06:48:33.430Z,100516.88
2023-10-09T06:51:34.107Z,100507.00
2023-10-09T06:54:05.337Z,100506.88
2023-10-09T06:56:31.747Z,100500.59
2023-10-09T06:59:05.605Z,100501.38
2023-10-09T07:01:43.854Z,100498.59
2023-10-09T07:04:20.858Z,100510.13
2023-10-09T07:06:51.988Z,100505.56
2023-10-09T07:09:20.464Z,100504.41
2023-10-09T07:11:49.327Z,100494.72
2023-10-09T07:14:33.459Z,100500.94
2023-10-09T07:17:23.061Z,100515.00
2023-10-09T07:19:51.463Z,100507.75
2023-10-09T07:22:20.962Z,100505.06
2023-10-09T07:24:51.234Z,100513.16
2023-10-09T07:27:41.104Z,100513.00
2023-10-09T07:30:29.292Z,100511.97
2023-10-09T07:32:57.042Z,100507.56
2023-10-09T07:35:42.109Z,100501.41
2023-10-09T07:38:09.984Z,100504.97
2023-10-09T07:40:58.723Z,100509.16
2023-10-09T07:43:41.291Z,100505.38
2023-10-09T07:46:27.165Z,100519.28
2023-10-09T07:48:54.109Z,100518.19
2023-10-09T07:51:24.287Z,100526.22
2023-10-09T07:53:58.045Z,100534.78
2023-10-09T07:56:25.360Z,100529.00
2023-10-09T07:58:52.923Z,100544.00
2023-10-09T08:01:36.078Z,100537.22
2023-10-09T08:04:06.394Z,100539.22
2023-10-09T08:07:02.550Z,100542.50
2023-10-09T08:10:01.016Z,100545.81
2023-10-09T08:12:59.209Z,100526.97
2023-10-09T08:15:35.615Z,100540.00
2023-10-09T08:18:08.529Z,100546.00
2023-10-09T08:20:53.518Z,100541.75
2023-10-09T08:23:34.566Z,100541.97
2023-10-09T08:26:14.600Z,100532.00
2023-10-09T08:28:46.412Z,100549.69
2023-10-09T08:31:35.438Z,100534.22
2023-10-09T08:36:37.746Z,100567.19
2023-10-09T08:39:26.102Z,100559.75
2023-10-09T08:41:53.560Z,100562.44
2023-10-09T08:44:26.378Z,100548.31
2023-10-09T08:46:55.226Z,100554.72
2023-10-09T08:49:22.814Z,100547.00
2023-10-09T08:51:49.392Z,100536.19
2023-10-09T08:54:16.361Z,100550.34
2023-10-09T08:56:52.184Z,100542.13
2023-10-09T08:59:20.135Z,100560.88
2023-10-09T09:01:50.282Z,100554.94
2023-10-09T09:04:39.724Z,100560.16
2023-10-09T09:07:23.090Z,100553.13
2023-10-09T09:10:05.100Z,100565.25
2023-10-09T09:12:38.486Z,100558.84
2023-10-09T09:15:11.993Z,100550.03
2023-10-09T09:17:42.556Z,100560.69
2023-10-09T09:20:24.102Z,100558.25
2023-10-09T09:22:57.289Z,100560.16
2023-10-09T09:25:32.207Z,100573.06
2023-10-09T09:28:10.761Z,100574.91
2023-10-09T09:30:38.932Z,100568.59
2023-10-09T09:33:43.752Z,100564.88
2023-10-09T09:36:12.990Z,100573.72
2023-10-09T09:38:52.557Z,100565.72
2023-10-09T09:41:26.403Z,100577.19
2023-10-09T09:43:57.649Z,100579.81
2023-10-09T09:46:34.377Z,100577.88
2023-10-09T09:49:17.942Z,100590.28
2023-10-09T09:51:47.664Z,100591.78
2023-10-09T09:54:16.935Z,100576.63
2023-10-09T09:56:51.834Z,100584.59
2023-10-09T09:59:28.601Z,100566.81
2023-10-09T10:02:07.529Z,100570.28
2023-10-09T10:04:38.019Z,100583.31
2023-10-09T10:07:10.188Z,100572.00
2023-10-09T10:09:46.884Z,100583.00
2023-10-09T10:12:15.412Z,100593.28
2023-10-09T10:14:51.032Z,100601.53
2023-10-09T10:17:21.400Z,100602.94
2023-10-09T10:20:26.489Z,100612.03
2023-10-09T10:23:19.893Z,100603.03
2023-10-09T10:26:01.056Z,100604.75
2023-10-09T10:28:43.556Z,100618.19
2023-10-09T10:31:10.851Z,100612.09
2023-10-09T10:33:54.819Z,100614.19
2023-10-09T10:36:26.165Z,100599.56
2023-10-09T10:39:17.059Z,100575.38
2023-10-09T10:41:55.158Z,100583.25
2023-10-09T10:44:39.532Z,100597.66
2023-10-09T10:47:28.216Z,100598.97
2023-10-09T10:49:59.754Z,100591.38
2023-10-09T10:52:36.974Z,100584.41
2023-10-09T10:55:32.813Z,100551.53
2023-10-09T10:58:01.992Z,100543.81
2023-10-09T11:00:48.389Z,100526.94
2023-10-09T11:03:30.884Z,100516.47
2023-10-09T11:06:14.081Z,100509.59
2023-10-09T11:08:55.214Z,100500.88
2023-10-09T11:11:22.395Z,100495.88
2023-10-09T11:14:03.453Z,100500.19
2023-10-09T11:16:42.688Z,100510.88
2023-10-09T11:19:24.094Z,100504.16
2023-10-09T11:21:59.772Z,100513.63
2023-10-09T11:24:34.190Z,100497.84
2023-10-09T11:27:06.630Z,100510.56
2023-10-09T11:29:46.174Z,100514.94
2023-10-09T11:32:23.288Z,100508.34
2023-10-09T11:35:09.621Z,100507.56
2023-10-09T11:37:45.098Z,100505.25
2023-10-09T11:40:48.795Z,100499.38
2023-10-09T11:43:15.559Z,100486.75
2023-10-09T11:45:55.360Z,100477.75
2023-10-09T11:48:45.546Z,100483.47
2023-10-09T11:51:20.103Z,100471.03
2023-10-09T11:53:50.733Z,100469.50
2023-10-09T11:56:25.557Z,100456.63
2023-10-09T11:58:52.469Z,100449.78
2023-10-09T12:01:21.273Z,100456.41
2023-10-09T12:03:51.134Z,100450.44
2023-10-09T12:06:23.640Z,100450.50
2023-10-09T12:08:50.784Z,100453.19
2023-10-09T12:11:24.996Z,100455.75
2023-10-09T12:13:57.329Z,100458.13
2023-10-09T12:16:29.007Z,100445.41
2023-10-09T12:18:56.038Z,100459.06
2023-10-09T12:21:22.424Z,100447.19
2023-10-09T12:23:48.822Z,100444.09
2023-10-09T12:26:15.949Z,100435.91
2023-10-09T12:28:47.041Z,100441.31
2023-10-09T12:31:16.128Z,100436.03
2023-10-09T12:33:43.180Z,100430.34
2023-10-09T12:36:20.698Z,100435.63
2023-10-09T12:38:55.547Z,100429.81
2023-10-09T12:41:29.270Z,100420.59
2023-10-09T12:43:56.586Z,100422.91
2023-10-09T12:46:29.400Z,100416.78
2023-10-09T12:48:55.918Z,100419.28
2023-10-09T12:51:26.757Z,100416.06
2023-10-09T12:53:58.228Z,100411.31
2023-10-09T12:56:33.923Z,100423.53
2023-10-09T12:59:02.717Z,100423.53
2023-10-09T13:01:43.588Z,100409.94
2023-10-09T13:04:12.769Z,100414.56
2023-10-09T13:06:46.286Z,100406.03
2023-10-09T13:09:25.668Z,100405.16
2023-10-09T13:11:52.211Z,100413.59
2023-10-09T13:14:20.112Z,100413.38
2023-10-09T13:16:47.301Z,100418.78
2023-10-09T13:19:14.116Z,100417.59
2023-10-09T13:21:41.319Z,100411.00
2023-10-09T13:24:17.303Z,100400.53
2023-10-09T13:26:52.230Z,100405.38
2023-10-09T13:29:23.690Z,100417.03
2023-10-09T13:31:53.638Z,100398.13
2023-10-09T13:34:20.035Z,100400.28
2023-10-09T13:36:54.734Z,100404.38
2023-10-09T13:39:27.714Z,100402.66
2023-10-09T13:42:05.508Z,100403.41
2023-10-09T13:44:33.161Z,100393.56
2023-10-09T13:47:02.782Z,100397.09
2023-10-09T13:49:32.304Z,100394.16
2023-10-09T13:52:04.055Z,100404.78
2023-10-09T13:54:34.683Z,100404.25
2023-10-09T13:57:05.009Z,100395.41
2023-10-09T13:59:32.050Z,100380.88
2023-10-09T14:02:00.373Z,100394.41
2023-10-09T14:04:29.597Z,100389.84
2023-10-09T14:07:00.433Z,100391.91
2023-10-09T14:09:38.973Z,100385.91
2023-10-09T14:12:07.747Z,100387.31
2023-10-09T14:14:48.153Z,100388.00
2023-10-09T14:17:24.530Z,100373.03
2023-10-09T14:19:52.540Z,100375.41
2023-10-09T14:22:20.995Z,100368.06
2023-10-09T14:24:48.809Z,100367.72
2023-10-09T14:27:19.198Z,100366.00
2023-10-09T14:29:50.448Z,100373.13
2023-10-09T14:32:17.573Z,100377.25
2023-10-09T14:34:51.113Z,100375.31
2023-10-09T14:37:21.536Z,100375.41
2023-10-09T14:39:51.231Z,100376.41
2023-10-09T14:42:18.930Z,100365.94
2023-10-09T14:44:48.923Z,100379.66
2023-10-09T14:47:15.749Z,100367.97
2023-10-09T14:49:45.338Z,100376.84
2023-10-09T14:52:11.815Z,100371.09
2023-10-09T14:54:39.266Z,100369.13
2023-10-09T14:57:07.081Z,100371.94
2023-10-09T14:59:36.546Z,100369.25
2023-10-09T15:02:02.934Z,100367.53
2023-10-09T15:04:29.432Z,100368.63
2023-10-09T15:06:55.843Z,100371.44
2023-10-09T15:09:29.308Z,100360.09
2023-10-09T15:11:55.876Z,100369.28
2023-10-09T15:14:22.338Z,100351.81
2023-10-09T15:16:49.143Z,100357.31
2023-10-09T15:19:17.474Z,100366.53
2023-10-09T15:21:47.624Z,100371.28
2023-10-09T15:24:20.389Z,100372.28
2023-10-09T15:26:53.290Z,100380.59
2023-10-09T15:29:24.215Z,100370.78
2023-10-09T15:31:54.006Z,100373.22
2023-10-09T15:34:21.652Z,100377.13
2023-10-09T15:36:48.460Z,100373.47
2023-10-09T15:39:15.384Z,100372.38
2023-10-09T15:41:41.844Z,100367.19
2023-10-09T15:44:08.227Z,100379.84
2023-10-09T15:46:35.601Z,100374.53
2023-10-09T15:49:02.540Z,100370.22
2023-10-09T15:51:30.642Z,100385.56
2023-10-09T15:53:57.956Z,100389.47
2023-10-09T15:56:25.360Z,100380.50
2023-10-09T15:58:55.036Z,100384.06
2023-10-09T16:01:21.797Z,100379.53
2023-10-09T16:03:49.007Z,100387.97
2023-10-09T16:06:17.201Z,100382.25
2023-10-09T16:08:51.152Z,100381.94
2023-10-09T16:11:24.941Z,100388.66
2023-10-09T16:13:54.657Z,100399.88
2023-10-09T16:16:31.485Z,100400.31
2023-10-09T16:18:58.813Z,100404.06
2023-10-09T16:21:25.854Z,100399.09
2023-10-09T16:23:53.190Z,100394.22
2023-10-09T16:26:20.826Z,100387.41
2023-10-09T16:28:49.477Z,100384.38
2023-10-09T16:31:19.816Z,100396.38
2023-10-09T16:33:48.597Z,100396.22
2023-10-09T16:36:16.666Z,100389.75
2023-10-09T16:38:44.664Z,100390.47
2023-10-09T16:41:11.073Z,100393.50
2023-10-09T16:43:44.367Z,100398.63
2023-10-09T16:46:12.343Z,100409.91
2023-10-09T16:48:38.692Z,100415.03
2023-10-09T16:51:09.671Z,100409.94
2023-10-09T16:53:40.097Z,100413.41
2023-10-09T16:56:10.914Z,100422.25
2023-10-09T16:58:38.812Z,100412.56
2023-10-09T17:01:11.453Z,100409.50
2023-10-09T17:03:43.281Z,100419.69
2023-10-09T17:06:11.306Z,100428.28
2023-10-09T17:08:44.189Z,100423.09
2023-10-09T17:11:21.101Z,100423.94
2023-10-09T17:13:53.415Z,100425.22
2023-10-09T17:16:22.690Z,100428.22
2023-10-09T17:18:57.648Z,100424.63
2023-10-09T17:21:24.374Z,100425.72
2023-10-09T17:23:52.144Z,100422.25
2023-10-09T17:26:23.767Z,100421.88
2023-10-09T17:28:53.286Z,100416.78
2023-10-09T17:31:24.757Z,100418.78
2023-10-09T17:33:54.880Z,100419.00
2023-10-09T17:36:21.609Z,100417.38
2023-10-09T17:38:51.826Z,100425.47
2023-10-09T17:41:22.495Z,100419.59
2023-10-09T17:43:51.321Z,100421.00
2023-10-09T17:46:18.845Z,100424.09
2023-10-09T17:48:46.215Z,100420.88
2023-10-09T17:51:12.701Z,100427.69
2023-10-09T17:53:39.728Z,100432.31
2023-10-09T17:56:07.418Z,100429.22
2023-10-09T17:58:33.824Z,100438.44
2023-10-09T18:01:02.810Z,100438.94
2023-10-09T18:03:31.159Z,100436.78
2023-10-09T18:05:58.404Z,100435.63
2023-10-09T18:08:26.755Z,100441.63
2023-10-09T18:10:57.804Z,100443.34
2023-10-09T18:13:26.043Z,100448.84
2023-10-09T18:16:10.842Z,100440.22
2023-10-09T18:18:37.866Z,100452.75
2023-10-09T18:21:06.814Z,100452.34
2023-10-09T18:23:34.055Z,100461.75
2023-10-09T18:26:02.296Z,100464.09
2023-10-09T18:28:29.712Z,100465.41
2023-10-09T18:30:56.151Z,100468.53
2023-10-09T18:33:24.187Z,100464.63
2023-10-09T18:35:50.609Z,100475.72
2023-10-09T18:38:19.889Z,100470.69
2023-10-09T18:40:49.198Z,100472.94
2023-10-09T18:43:15.958Z,100479.72
2023-10-09T18:45:43.739Z,100474.69
2023-10-09T18:48:13.606Z,100483.00
2023-10-09T18:50:42.487Z,100489.34
2023-10-09T18:53:11.230Z,100475.34
2023-10-09T18:55:38.419Z,100483.41
2023-10-09T18:58:06.214Z,100476.59
2023-10-09T19:00:32.895Z,100483.88
2023-10-09T19:03:01.010Z,100485.75
2023-10-09T19:05:28.334Z,100482.28
2023-10-09T19:07:55.023Z,100485.13
2023-10-09T19:10:26.517Z,100490.50
2023-10-09T19:12:53.873Z,100491.53
2023-10-09T19:15:20.142Z,100494.31
2023-10-09T19:17:46.679Z,100489.13
2023-10-09T19:20:13.261Z,100497.09
2023-10-09T19:22:40.150Z,100495.34
2023-10-09T19:25:17.403Z,100489.25
2023-10-09T19:27:49.783Z,100490.31
2023-10-09T19:30:19.493Z,100498.59
2023-10-09T19:32:48.659Z,100494.34
2023-10-09T19:35:16.477Z,100492.78
2023-10-09T19:37:43.431Z,100494.00
2023-10-09T19:40:13.029Z,100490.81
2023-10-09T19:42:40.091Z,100493.72
2023-10-09T19:45:10.734Z,100493.19
2023-10-09T19:47:40.832Z,100501.34
2023-10-09T19:50:16.224Z,100502.56
2023-10-09T19:52:43.393Z,100510.94
2023-10-09T19:55:10.519Z,100505.09
2023-10-09T19:57:36.933Z,100513.25
2023-10-09T20:00:07.513Z,100519.72
2023-10-09T20:02:35.699Z,100520.09
2023-10-09T20:05:02.226Z,100529.97
2023-10-09T20:07:28.679Z,100521.50
2023-10-09T20:09:59.099Z,100521.56
2023-10-09T20:12:30.631Z,100524.47
2023-10-09T20:14:57.367Z,100529.06
2023-10-09T20:17:25.215Z,100535.50
2023-10-09T20:19:53.982Z,100518.94
2023-10-09T20:22:21.421Z,100530.59
2023-10-09T20:24:47.765Z,100535.31
2023-10-09T20:27:18.159Z,100539.97
2023-10-09T20:29:44.878Z,100533.09
2023-10-09T20:32:15.243Z,100531.56
2023-10-09T20:34:45.316Z,100544.25
2023-10-09T20:37:13.492Z,100542.69
2023-10-09T20:39:41.794Z,100545.59
2023-10-09T20:42:08.142Z,100546.81
2023-10-09T20:44:36.382Z,100546.16
2023-10-09T20:47:04.075Z,100550.88
2023-10-09T20:49:32.662Z,100557.50
2023-10-09T20:51:59.154Z,100558.63
2023-10-09T20:54:26.458Z,100554.41
2023-10-09T20:56:53.008Z,100557.38
2023-10-09T20:59:19.776Z,100555.97
2023-10-09T21:01:46.566Z,100551.75
2023-10-09T21:04:13.262Z,100562.63
2023-10-09T21:06:39.752Z,100556.56
2023-10-09T21:09:08.021Z,100558.66
2023-10-09T21:11:34.806Z,100568.78
2023-10-09T21:14:01.304Z,100565.41
2023-10-09T21:16:27.604Z,100561.47
2023-10-09T21:18:56.769Z,100568.56
2023-10-09T21:21:23.438Z,100577.59
2023-10-09T21:23:50.525Z,100565.34
2023-10-09T21:26:20.752Z,100568.09
2023-10-09T21:28:48.792Z,100573.56
2023-10-09T21:31:22.668Z,100581.75
2023-10-09T21:33:50.079Z,100580.88
2023-10-09T21:36:17.270Z,100578.31
2023-10-09T21:38:43.716Z,100576.81
2023-10-09T21:41:14.437Z,100574.38
2023-10-09T21:43:41.257Z,100584.06
2023-10-09T21:46:11.705Z,100580.59
2023-10-09T21:48:39.135Z,100578.91
2023-10-09T21:51:09.185Z,100572.81
2023-10-09T21:53:36.088Z,100575.63
2023-10-09T21:56:11.691Z,100577.50
2023-10-09T21:58:38.205Z,100592.78
2023-10-09T22:01:04.662Z,100587.56
2023-10-09T22:03:32.130Z,100572.66
2023-10-09T22:05:59.888Z,100578.03
2023-10-09T22:08:26.774Z,100583.41
2023-10-09T22:10:54.495Z,100576.38
2023-10-09T22:13:21.882Z,100587.13
2023-10-09T22:15:49.301Z,100586.38
2023-10-09T22:18:22.065Z,100594.47
2023-10-09T22:20:49.611Z,100586.50
2023-10-09T22:23:19.737Z,100584.81
2023-10-09T22:25:56.656Z,100582.22
2023-10-09T22:28:24.752Z,100591.28
2023-10-09T22:30:54.171Z,100590.41
2023-10-09T22:33:23.148Z,100586.94
2023-10-09T22:35:49.612Z,100580.72
2023-10-09T22:38:21.689Z,100581.53
2023-10-09T22:40:55.518Z,100581.78
2023-10-09T22:43:24.643Z,100589.72
2023-10-09T22:45:52.140Z,100584.50
2023-10-09T22:48:19.927Z,100581.00
2023-10-09T22:50:47.319Z,100587.41
2023-10-09T22:53:22.830Z,100577.72
2023-10-09T22:55:54.225Z,100578.88
2023-10-09T22:58:28.357Z,100574.59
2023-10-09T23:01:02.186Z,100572.03
2023-10-09T23:03:29.600Z,100575.69
2023-10-09T23:06:12.768Z,100569.53
2023-10-09T23:08:40.054Z,100575.88
2023-10-09T23:11:09.839Z,100575.13
2023-10-09T23:13:53.650Z,100577.97
2023-10-09T23:16:33.456Z,100574.53
2023-10-09T23:19:05.721Z,100574.53
2023-10-09T23:21:50.720Z,100578.25
2023-10-09T23:24:29.323Z,100582.78
2023-10-09T23:26:56.570Z,100586.47
2023-10-09T23:29:30.535Z,100592.81
2023-10-09T23:32:17.462Z,100582.22
2023-10-09T23:34:53.570Z,100589.47
2023-10-09T23:37:38.876Z,100579.69
2023-10-09T23:40:14.645Z,100578.84
2023-10-09T23:42:50.997Z,100578.88
2023-10-09T23:45:21.832Z,100580.69
2023-10-09T23:47:48.342Z,100575.41
2023-10-09T23:50:17.174Z,100575.47
2023-10-09T23:52:47.514Z,100572.00
2023-10-09T23:55:14.139Z,100575.56
2023-10-09T23:57:45.099Z,100578.28
